sensor_id;sensor_type;location;lat;lon;timestamp;P1;durP1;ratioP1;P2;durP2;ratioP2
2458;SDS011;1241;50.920;6.936;2023-04-24T00:00:03;30.77;;;24.83;;
2458;SDS011;1241;50.920;6.936;2023-04-24T00:02:31;22.23;;;18.73;;
2458;SDS011;1241;50.920;6.936;2023-04-24T00:04:58;22.25;;;16.90;;
2458;SDS011;1241;50.920;6.936;2023-04-24T00:07:28;28.88;;;22.60;;
2458;SDS011;1241;50.920;6.936;2023-04-24T00:09:54;15.65;;;11.60;;
2458;SDS011;1241;50.920;6.936;2023-04-24T00:12:20;29.92;;;23.23;;
2458;SDS011;1241;50.920;6.936;2023-04-24T00:14:46;28.90;;;23.90;;
2458;SDS011;1241;50.920;6.936;2023-04-24T00:17:11;16.10;;;13.37;;
2458;SDS011;1241;50.920;6.936;2023-04-24T00:19:37;35.55;;;27.65;;
2458;SDS011;1241;50.920;6.936;2023-04-24T00:22:03;28.85;;;23.40;;
2458;SDS011;1241;50.920;6.936;2023-04-24T00:24:29;43.45;;;32.47;;
2458;SDS011;1241;50.920;6.936;2023-04-24T00:26:54;42.20;;;34.90;;
2458;SDS011;1241;50.920;6.936;2023-04-24T00:29:20;39.78;;;33.22;;
2458;SDS011;1241;50.920;6.936;2023-04-24T00:31:46;37.05;;;28.77;;
2458;SDS011;1241;50.920;6.936;2023-04-24T00:34:12;28.10;;;22.50;;
2458;SDS011;1241;50.920;6.936;2023-04-24T00:36:38;22.60;;;17.30;;
2458;SDS011;1241;50.920;6.936;2023-04-24T00:39:04;45.65;;;35.92;;
2458;SDS011;1241;50.920;6.936;2023-04-24T00:41:30;27.43;;;21.87;;
2458;SDS011;1241;50.920;6.936;2023-04-24T00:43:56;28.83;;;24.02;;
2458;SDS011;1241;50.920;6.936;2023-04-24T00:46:21;25.45;;;20.20;;
2458;SDS011;1241;50.920;6.936;2023-04-24T00:48:47;22.35;;;18.15;;
2458;SDS011;1241;50.920;6.936;2023-04-24T00:51:13;30.77;;;23.70;;
2458;SDS011;1241;50.920;6.936;2023-04-24T00:53:39;15.05;;;12.00;;
2458;SDS011;1241;50.920;6.936;2023-04-24T00:56:05;31.75;;;25.50;;
2458;SDS011;1241;50.920;6.936;2023-04-24T00:58:30;29.73;;;22.63;;
2458;SDS011;1241;50.920;6.936;2023-04-24T01:00:57;22.02;;;17.77;;
2458;SDS011;1241;50.920;6.936;2023-04-24T01:03:24;24.85;;;19.90;;
2458;SDS011;1241;50.920;6.936;2023-04-24T01:05:54;30.40;;;24.83;;
2458;SDS011;1241;50.920;6.936;2023-04-24T01:08:20;28.88;;;22.42;;
2458;SDS011;1241;50.920;6.936;2023-04-24T01:10:49;25.83;;;20.80;;
2458;SDS011;1241;50.920;6.936;2023-04-24T01:13:18;32.13;;;25.58;;
2458;SDS011;1241;50.920;6.936;2023-04-24T01:15:44;26.30;;;19.85;;
2458;SDS011;1241;50.920;6.936;2023-04-24T01:18:11;23.40;;;18.67;;
2458;SDS011;1241;50.920;6.936;2023-04-24T01:20:39;30.05;;;23.42;;
2458;SDS011;1241;50.920;6.936;2023-04-24T01:23:06;27.70;;;21.58;;
2458;SDS011;1241;50.920;6.936;2023-04-24T01:25:32;36.88;;;27.90;;
2458;SDS011;1241;50.920;6.936;2023-04-24T01:27:58;34.38;;;25.27;;
2458;SDS011;1241;50.920;6.936;2023-04-24T01:30:24;23.50;;;18.38;;
2458;SDS011;1241;50.920;6.936;2023-04-24T01:32:51;19.73;;;14.55;;
2458;SDS011;1241;50.920;6.936;2023-04-24T01:35:18;26.33;;;20.30;;
2458;SDS011;1241;50.920;6.936;2023-04-24T01:37:45;30.95;;;24.00;;
2458;SDS011;1241;50.920;6.936;2023-04-24T01:40:10;19.40;;;15.18;;
2458;SDS011;1241;50.920;6.936;2023-04-24T01:42:36;24.87;;;19.33;;
2458;SDS011;1241;50.920;6.936;2023-04-24T01:45:03;20.55;;;17.60;;
2458;SDS011;1241;50.920;6.936;2023-04-24T01:47:30;19.50;;;16.38;;
2458;SDS011;1241;50.920;6.936;2023-04-24T01:49:57;18.55;;;15.55;;
2458;SDS011;1241;50.920;6.936;2023-04-24T01:52:23;18.92;;;16.17;;
2458;SDS011;1241;50.920;6.936;2023-04-24T01:54:49;23.70;;;19.48;;
2458;SDS011;1241;50.920;6.936;2023-04-24T01:57:16;23.37;;;19.23;;
2458;SDS011;1241;50.920;6.936;2023-04-24T01:59:41;35.90;;;27.50;;
2458;SDS011;1241;50.920;6.936;2023-04-24T02:02:07;22.60;;;17.77;;
2458;SDS011;1241;50.920;6.936;2023-04-24T02:04:34;23.20;;;18.90;;
2458;SDS011;1241;50.920;6.936;2023-04-24T02:07:00;25.50;;;18.80;;
2458;SDS011;1241;50.920;6.936;2023-04-24T02:09:25;27.05;;;21.33;;
2458;SDS011;1241;50.920;6.936;2023-04-24T02:11:51;29.50;;;22.75;;
2458;SDS011;1241;50.920;6.936;2023-04-24T02:14:17;16.20;;;13.17;;
2458;SDS011;1241;50.920;6.936;2023-04-24T02:16:43;25.13;;;18.90;;
2458;SDS011;1241;50.920;6.936;2023-04-24T02:19:09;27.10;;;22.27;;
2458;SDS011;1241;50.920;6.936;2023-04-24T02:21:35;31.17;;;24.52;;
2458;SDS011;1241;50.920;6.936;2023-04-24T02:24:01;25.30;;;20.23;;
2458;SDS011;1241;50.920;6.936;2023-04-24T02:26:27;22.95;;;18.35;;
2458;SDS011;1241;50.920;6.936;2023-04-24T02:28:52;26.67;;;20.15;;
2458;SDS011;1241;50.920;6.936;2023-04-24T02:31:19;33.20;;;25.50;;
2458;SDS011;1241;50.920;6.936;2023-04-24T02:33:47;19.27;;;15.10;;
2458;SDS011;1241;50.920;6.936;2023-04-24T02:36:12;24.13;;;17.07;;
2458;SDS011;1241;50.920;6.936;2023-04-24T02:38:39;27.92;;;21.85;;
2458;SDS011;1241;50.920;6.936;2023-04-24T02:41:04;24.93;;;19.27;;
2458;SDS011;1241;50.920;6.936;2023-04-24T02:43:31;33.42;;;25.60;;
2458;SDS011;1241;50.920;6.936;2023-04-24T02:45:58;19.20;;;16.08;;
2458;SDS011;1241;50.920;6.936;2023-04-24T02:48:25;24.77;;;19.52;;
2458;SDS011;1241;50.920;6.936;2023-04-24T02:50:50;25.87;;;20.70;;
2458;SDS011;1241;50.920;6.936;2023-04-24T02:53:16;16.90;;;13.18;;
2458;SDS011;1241;50.920;6.936;2023-04-24T02:55:42;34.65;;;26.05;;
2458;SDS011;1241;50.920;6.936;2023-04-24T02:58:07;26.98;;;21.58;;
2458;SDS011;1241;50.920;6.936;2023-04-24T03:00:33;25.40;;;20.97;;
2458;SDS011;1241;50.920;6.936;2023-04-24T03:02:59;39.88;;;31.42;;
2458;SDS011;1241;50.920;6.936;2023-04-24T03:05:25;22.95;;;18.55;;
2458;SDS011;1241;50.920;6.936;2023-04-24T03:07:52;22.88;;;18.48;;
2458;SDS011;1241;50.920;6.936;2023-04-24T03:10:20;27.60;;;21.08;;
2458;SDS011;1241;50.920;6.936;2023-04-24T03:12:47;20.55;;;17.55;;
2458;SDS011;1241;50.920;6.936;2023-04-24T03:15:13;25.10;;;21.02;;
2458;SDS011;1241;50.920;6.936;2023-04-24T03:17:39;20.73;;;17.40;;
2458;SDS011;1241;50.920;6.936;2023-04-24T03:20:06;22.23;;;19.77;;
2458;SDS011;1241;50.920;6.936;2023-04-24T03:22:34;19.35;;;16.40;;
2458;SDS011;1241;50.920;6.936;2023-04-24T03:25:02;27.52;;;22.10;;
2458;SDS011;1241;50.920;6.936;2023-04-24T03:27:28;17.17;;;14.75;;
2458;SDS011;1241;50.920;6.936;2023-04-24T03:30:00;16.73;;;14.75;;
2458;SDS011;1241;50.920;6.936;2023-04-24T03:32:47;24.80;;;19.90;;
2458;SDS011;1241;50.920;6.936;2023-04-24T03:35:17;20.75;;;17.17;;
2458;SDS011;1241;50.920;6.936;2023-04-24T03:37:43;27.73;;;21.85;;
2458;SDS011;1241;50.920;6.936;2023-04-24T03:40:38;30.13;;;23.70;;
2458;SDS011;1241;50.920;6.936;2023-04-24T03:43:14;21.13;;;17.38;;
2458;SDS011;1241;50.920;6.936;2023-04-24T03:45:39;30.75;;;26.30;;
2458;SDS011;1241;50.920;6.936;2023-04-24T03:48:05;26.70;;;21.98;;
2458;SDS011;1241;50.920;6.936;2023-04-24T03:50:34;21.65;;;19.00;;
2458;SDS011;1241;50.920;6.936;2023-04-24T03:53:00;22.50;;;18.40;;
2458;SDS011;1241;50.920;6.936;2023-04-24T03:55:38;23.50;;;18.50;;
2458;SDS011;1241;50.920;6.936;2023-04-24T03:58:04;27.15;;;23.27;;
2458;SDS011;1241;50.920;6.936;2023-04-24T04:00:31;19.17;;;14.93;;
2458;SDS011;1241;50.920;6.936;2023-04-24T04:03:17;21.48;;;16.58;;
2458;SDS011;1241;50.920;6.936;2023-04-24T04:05:42;19.17;;;16.50;;
2458;SDS011;1241;50.920;6.936;2023-04-24T04:08:08;18.08;;;15.88;;
2458;SDS011;1241;50.920;6.936;2023-04-24T04:10:34;17.23;;;14.90;;
2458;SDS011;1241;50.920;6.936;2023-04-24T04:13:03;17.25;;;14.95;;
2458;SDS011;1241;50.920;6.936;2023-04-24T04:15:29;16.90;;;13.98;;
2458;SDS011;1241;50.920;6.936;2023-04-24T04:17:55;24.85;;;18.50;;
2458;SDS011;1241;50.920;6.936;2023-04-24T04:20:22;12.05;;;10.73;;
2458;SDS011;1241;50.920;6.936;2023-04-24T04:22:48;17.70;;;14.33;;
2458;SDS011;1241;50.920;6.936;2023-04-24T04:25:19;20.83;;;16.90;;
2458;SDS011;1241;50.920;6.936;2023-04-24T04:27:46;22.02;;;18.70;;
2458;SDS011;1241;50.920;6.936;2023-04-24T04:30:13;25.08;;;19.73;;
2458;SDS011;1241;50.920;6.936;2023-04-24T04:32:47;17.67;;;14.88;;
2458;SDS011;1241;50.920;6.936;2023-04-24T04:35:13;22.33;;;18.30;;
2458;SDS011;1241;50.920;6.936;2023-04-24T04:37:39;24.33;;;19.65;;
2458;SDS011;1241;50.920;6.936;2023-04-24T04:40:34;26.77;;;20.60;;
2458;SDS011;1241;50.920;6.936;2023-04-24T04:43:03;18.98;;;15.82;;
2458;SDS011;1241;50.920;6.936;2023-04-24T04:45:36;20.98;;;18.67;;
2458;SDS011;1241;50.920;6.936;2023-04-24T04:48:33;26.35;;;21.00;;
2458;SDS011;1241;50.920;6.936;2023-04-24T04:51:00;37.75;;;30.85;;
2458;SDS011;1241;50.920;6.936;2023-04-24T04:53:27;31.05;;;25.98;;
2458;SDS011;1241;50.920;6.936;2023-04-24T04:55:53;20.93;;;16.83;;
2458;SDS011;1241;50.920;6.936;2023-04-24T04:58:22;22.23;;;18.63;;
2458;SDS011;1241;50.920;6.936;2023-04-24T05:00:53;17.67;;;15.65;;
2458;SDS011;1241;50.920;6.936;2023-04-24T05:03:27;28.15;;;23.00;;
2458;SDS011;1241;50.920;6.936;2023-04-24T05:06:05;16.63;;;13.90;;
2458;SDS011;1241;50.920;6.936;2023-04-24T05:08:34;20.80;;;18.55;;
2458;SDS011;1241;50.920;6.936;2023-04-24T05:11:01;25.55;;;19.48;;
2458;SDS011;1241;50.920;6.936;2023-04-24T05:13:28;18.83;;;16.23;;
2458;SDS011;1241;50.920;6.936;2023-04-24T05:15:55;28.90;;;23.10;;
2458;SDS011;1241;50.920;6.936;2023-04-24T05:18:21;29.08;;;22.98;;
2458;SDS011;1241;50.920;6.936;2023-04-24T05:20:47;26.30;;;21.83;;
2458;SDS011;1241;50.920;6.936;2023-04-24T05:23:13;26.92;;;22.90;;
2458;SDS011;1241;50.920;6.936;2023-04-24T05:25:41;22.15;;;18.48;;
2458;SDS011;1241;50.920;6.936;2023-04-24T05:28:10;27.80;;;21.23;;
2458;SDS011;1241;50.920;6.936;2023-04-24T05:30:37;28.67;;;23.55;;
2458;SDS011;1241;50.920;6.936;2023-04-24T05:33:03;19.45;;;15.63;;
2458;SDS011;1241;50.920;6.936;2023-04-24T05:35:31;18.80;;;15.35;;
2458;SDS011;1241;50.920;6.936;2023-04-24T05:37:57;26.00;;;22.50;;
2458;SDS011;1241;50.920;6.936;2023-04-24T05:40:23;26.30;;;21.17;;
2458;SDS011;1241;50.920;6.936;2023-04-24T05:42:48;24.23;;;19.90;;
2458;SDS011;1241;50.920;6.936;2023-04-24T05:45:14;16.10;;;14.40;;
2458;SDS011;1241;50.920;6.936;2023-04-24T05:47:45;21.70;;;17.00;;
2458;SDS011;1241;50.920;6.936;2023-04-24T05:50:10;25.45;;;21.35;;
2458;SDS011;1241;50.920;6.936;2023-04-24T05:52:36;36.88;;;29.02;;
2458;SDS011;1241;50.920;6.936;2023-04-24T05:55:08;10.20;;;8.00;;
2458;SDS011;1241;50.920;6.936;2023-04-24T05:57:36;8.47;;;7.27;;
2458;SDS011;1241;50.920;6.936;2023-04-24T06:00:03;8.73;;;7.80;;
2458;SDS011;1241;50.920;6.936;2023-04-24T06:02:38;8.68;;;7.85;;
2458;SDS011;1241;50.920;6.936;2023-04-24T06:05:05;7.82;;;7.00;;
2458;SDS011;1241;50.920;6.936;2023-04-24T06:07:31;8.60;;;7.78;;
2458;SDS011;1241;50.920;6.936;2023-04-24T06:10:00;8.40;;;7.60;;
2458;SDS011;1241;50.920;6.936;2023-04-24T06:12:27;8.30;;;7.40;;
2458;SDS011;1241;50.920;6.936;2023-04-24T06:14:58;9.88;;;8.88;;
2458;SDS011;1241;50.920;6.936;2023-04-24T06:17:35;10.30;;;9.20;;
2458;SDS011;1241;50.920;6.936;2023-04-24T06:20:00;10.27;;;9.27;;
2458;SDS011;1241;50.920;6.936;2023-04-24T06:22:28;70.13;;;51.07;;
2458;SDS011;1241;50.920;6.936;2023-04-24T06:24:54;16.98;;;15.07;;
2458;SDS011;1241;50.920;6.936;2023-04-24T06:27:20;69.50;;;53.40;;
2458;SDS011;1241;50.920;6.936;2023-04-24T06:29:46;28.10;;;23.80;;
2458;SDS011;1241;50.920;6.936;2023-04-24T06:32:19;14.43;;;12.88;;
2458;SDS011;1241;50.920;6.936;2023-04-24T06:34:48;22.08;;;17.55;;
2458;SDS011;1241;50.920;6.936;2023-04-24T06:37:14;8.17;;;6.53;;
2458;SDS011;1241;50.920;6.936;2023-04-24T06:39:41;5.30;;;4.15;;
2458;SDS011;1241;50.920;6.936;2023-04-24T06:42:07;11.00;;;8.00;;
2458;SDS011;1241;50.920;6.936;2023-04-24T06:44:34;8.35;;;7.05;;
2458;SDS011;1241;50.920;6.936;2023-04-24T06:47:05;9.73;;;7.80;;
2458;SDS011;1241;50.920;6.936;2023-04-24T06:49:32;7.53;;;6.72;;
2458;SDS011;1241;50.920;6.936;2023-04-24T06:51:58;6.93;;;5.00;;
2458;SDS011;1241;50.920;6.936;2023-04-24T06:54:23;6.07;;;5.20;;
2458;SDS011;1241;50.920;6.936;2023-04-24T06:56:49;5.80;;;4.85;;
2458;SDS011;1241;50.920;6.936;2023-04-24T06:59:16;7.97;;;7.13;;
2458;SDS011;1241;50.920;6.936;2023-04-24T07:01:42;6.50;;;5.53;;
2458;SDS011;1241;50.920;6.936;2023-04-24T07:04:07;7.40;;;6.03;;
2458;SDS011;1241;50.920;6.936;2023-04-24T07:06:33;5.68;;;4.90;;
2458;SDS011;1241;50.920;6.936;2023-04-24T07:09:00;7.22;;;6.30;;
2458;SDS011;1241;50.920;6.936;2023-04-24T07:11:26;6.03;;;5.43;;
2458;SDS011;1241;50.920;6.936;2023-04-24T07:13:54;6.47;;;5.72;;
2458;SDS011;1241;50.920;6.936;2023-04-24T07:16:20;9.38;;;7.82;;
2458;SDS011;1241;50.920;6.936;2023-04-24T07:18:46;9.50;;;6.43;;
2458;SDS011;1241;50.920;6.936;2023-04-24T07:21:12;6.43;;;5.30;;
2458;SDS011;1241;50.920;6.936;2023-04-24T07:23:38;6.68;;;5.65;;
2458;SDS011;1241;50.920;6.936;2023-04-24T07:26:03;6.77;;;5.87;;
2458;SDS011;1241;50.920;6.936;2023-04-24T07:28:30;10.27;;;6.53;;
2458;SDS011;1241;50.920;6.936;2023-04-24T07:30:56;4.57;;;4.18;;
2458;SDS011;1241;50.920;6.936;2023-04-24T07:33:23;6.43;;;5.63;;
2458;SDS011;1241;50.920;6.936;2023-04-24T07:35:49;7.60;;;5.47;;
2458;SDS011;1241;50.920;6.936;2023-04-24T07:38:15;6.35;;;5.05;;
2458;SDS011;1241;50.920;6.936;2023-04-24T07:43:06;4.27;;;2.90;;
2458;SDS011;1241;50.920;6.936;2023-04-24T07:45:32;5.30;;;4.17;;
2458;SDS011;1241;50.920;6.936;2023-04-24T07:48:02;4.97;;;4.40;;
2458;SDS011;1241;50.920;6.936;2023-04-24T07:50:28;4.32;;;3.75;;
2458;SDS011;1241;50.920;6.936;2023-04-24T07:52:54;3.77;;;3.47;;
2458;SDS011;1241;50.920;6.936;2023-04-24T07:55:19;4.65;;;3.58;;
2458;SDS011;1241;50.920;6.936;2023-04-24T07:57:45;3.90;;;3.27;;
2458;SDS011;1241;50.920;6.936;2023-04-24T08:00:11;3.27;;;3.07;;
2458;SDS011;1241;50.920;6.936;2023-04-24T08:02:37;3.97;;;3.15;;
2458;SDS011;1241;50.920;6.936;2023-04-24T08:05:03;4.80;;;2.80;;
2458;SDS011;1241;50.920;6.936;2023-04-24T08:07:29;3.03;;;2.80;;
2458;SDS011;1241;50.920;6.936;2023-04-24T08:09:55;3.83;;;3.27;;
2458;SDS011;1241;50.920;6.936;2023-04-24T08:12:21;4.68;;;3.75;;
2458;SDS011;1241;50.920;6.936;2023-04-24T08:14:46;4.18;;;3.28;;
2458;SDS011;1241;50.920;6.936;2023-04-24T08:17:12;4.83;;;3.27;;
2458;SDS011;1241;50.920;6.936;2023-04-24T08:19:39;3.23;;;2.40;;
2458;SDS011;1241;50.920;6.936;2023-04-24T08:22:16;4.68;;;4.28;;
2458;SDS011;1241;50.920;6.936;2023-04-24T08:24:43;5.45;;;3.95;;
2458;SDS011;1241;50.920;6.936;2023-04-24T08:27:09;4.60;;;4.10;;
2458;SDS011;1241;50.920;6.936;2023-04-24T08:29:35;3.80;;;3.15;;
2458;SDS011;1241;50.920;6.936;2023-04-24T08:32:01;4.55;;;3.78;;
2458;SDS011;1241;50.920;6.936;2023-04-24T08:34:27;3.42;;;2.85;;
2458;SDS011;1241;50.920;6.936;2023-04-24T08:36:53;3.10;;;2.80;;
2458;SDS011;1241;50.920;6.936;2023-04-24T08:39:19;4.15;;;3.10;;
2458;SDS011;1241;50.920;6.936;2023-04-24T08:41:45;3.92;;;3.53;;
2458;SDS011;1241;50.920;6.936;2023-04-24T08:44:13;4.20;;;3.40;;
2458;SDS011;1241;50.920;6.936;2023-04-24T08:46:41;5.32;;;3.90;;
2458;SDS011;1241;50.920;6.936;2023-04-24T08:49:10;4.18;;;3.20;;
2458;SDS011;1241;50.920;6.936;2023-04-24T08:51:38;4.93;;;4.43;;
2458;SDS011;1241;50.920;6.936;2023-04-24T08:54:04;6.90;;;4.00;;
2458;SDS011;1241;50.920;6.936;2023-04-24T08:56:33;4.50;;;4.10;;
2458;SDS011;1241;50.920;6.936;2023-04-24T08:59:03;5.07;;;4.43;;
2458;SDS011;1241;50.920;6.936;2023-04-24T09:01:29;5.10;;;4.60;;
2458;SDS011;1241;50.920;6.936;2023-04-24T09:03:58;5.03;;;4.53;;
2458;SDS011;1241;50.920;6.936;2023-04-24T09:06:29;6.13;;;5.03;;
2458;SDS011;1241;50.920;6.936;2023-04-24T09:08:58;7.47;;;5.30;;
2458;SDS011;1241;50.920;6.936;2023-04-24T09:11:25;6.10;;;5.03;;
2458;SDS011;1241;50.920;6.936;2023-04-24T09:13:52;6.60;;;5.90;;
2458;SDS011;1241;50.920;6.936;2023-04-24T09:16:19;5.40;;;4.90;;
2458;SDS011;1241;50.920;6.936;2023-04-24T09:18:45;6.53;;;5.50;;
2458;SDS011;1241;50.920;6.936;2023-04-24T09:21:11;7.13;;;6.30;;
2458;SDS011;1241;50.920;6.936;2023-04-24T09:23:37;6.53;;;5.85;;
2458;SDS011;1241;50.920;6.936;2023-04-24T09:26:04;7.55;;;6.07;;
2458;SDS011;1241;50.920;6.936;2023-04-24T09:28:34;7.85;;;7.05;;
2458;SDS011;1241;50.920;6.936;2023-04-24T09:31:03;7.20;;;6.60;;
2458;SDS011;1241;50.920;6.936;2023-04-24T09:33:29;8.93;;;7.30;;
2458;SDS011;1241;50.920;6.936;2023-04-24T09:35:55;7.93;;;7.23;;
2458;SDS011;1241;50.920;6.936;2023-04-24T09:38:30;8.80;;;7.50;;
2458;SDS011;1241;50.920;6.936;2023-04-24T09:41:00;7.90;;;7.10;;
2458;SDS011;1241;50.920;6.936;2023-04-24T09:43:31;9.88;;;7.80;;
2458;SDS011;1241;50.920;6.936;2023-04-24T09:45:58;10.40;;;8.77;;
2458;SDS011;1241;50.920;6.936;2023-04-24T09:48:32;10.10;;;8.30;;
2458;SDS011;1241;50.920;6.936;2023-04-24T09:51:04;11.10;;;8.43;;
2458;SDS011;1241;50.920;6.936;2023-04-24T09:53:36;9.85;;;8.85;;
2458;SDS011;1241;50.920;6.936;2023-04-24T09:56:09;9.60;;;8.68;;
2458;SDS011;1241;50.920;6.936;2023-04-24T09:58:37;10.38;;;9.38;;
2458;SDS011;1241;50.920;6.936;2023-04-24T10:01:03;13.05;;;9.43;;
2458;SDS011;1241;50.920;6.936;2023-04-24T10:03:30;11.20;;;8.67;;
2458;SDS011;1241;50.920;6.936;2023-04-24T10:06:00;9.95;;;8.70;;
2458;SDS011;1241;50.920;6.936;2023-04-24T10:08:26;9.50;;;8.00;;
2458;SDS011;1241;50.920;6.936;2023-04-24T10:10:59;9.25;;;8.20;;
2458;SDS011;1241;50.920;6.936;2023-04-24T10:13:26;9.68;;;8.10;;
2458;SDS011;1241;50.920;6.936;2023-04-24T10:15:52;8.85;;;7.72;;
2458;SDS011;1241;50.920;6.936;2023-04-24T10:18:19;9.32;;;7.05;;
2458;SDS011;1241;50.920;6.936;2023-04-24T10:20:46;9.10;;;7.68;;
2458;SDS011;1241;50.920;6.936;2023-04-24T10:23:12;6.70;;;6.03;;
2458;SDS011;1241;50.920;6.936;2023-04-24T10:25:38;8.50;;;6.77;;
2458;SDS011;1241;50.920;6.936;2023-04-24T10:28:04;8.02;;;6.10;;
2458;SDS011;1241;50.920;6.936;2023-04-24T10:30:31;5.88;;;4.88;;
2458;SDS011;1241;50.920;6.936;2023-04-24T10:33:03;8.15;;;5.95;;
2458;SDS011;1241;50.920;6.936;2023-04-24T10:35:41;7.53;;;5.68;;
2458;SDS011;1241;50.920;6.936;2023-04-24T10:38:11;6.10;;;5.50;;
2458;SDS011;1241;50.920;6.936;2023-04-24T10:40:38;10.57;;;6.20;;
2458;SDS011;1241;50.920;6.936;2023-04-24T10:43:05;7.38;;;5.43;;
2458;SDS011;1241;50.920;6.936;2023-04-24T10:45:33;7.70;;;5.60;;
2458;SDS011;1241;50.920;6.936;2023-04-24T10:47:59;6.77;;;4.77;;
2458;SDS011;1241;50.920;6.936;2023-04-24T10:50:28;6.13;;;5.53;;
2458;SDS011;1241;50.920;6.936;2023-04-24T10:53:15;6.60;;;5.72;;
2458;SDS011;1241;50.920;6.936;2023-04-24T10:55:52;7.03;;;5.90;;
2458;SDS011;1241;50.920;6.936;2023-04-24T10:58:24;6.57;;;5.20;;
2458;SDS011;1241;50.920;6.936;2023-04-24T11:01:00;7.90;;;5.60;;
2458;SDS011;1241;50.920;6.936;2023-04-24T11:03:28;5.93;;;5.30;;
2458;SDS011;1241;50.920;6.936;2023-04-24T11:05:55;6.55;;;5.65;;
2458;SDS011;1241;50.920;6.936;2023-04-24T11:08:25;7.20;;;5.93;;
2458;SDS011;1241;50.920;6.936;2023-04-24T11:13:22;8.15;;;6.25;;
2458;SDS011;1241;50.920;6.936;2023-04-24T11:18:41;11.38;;;6.43;;
2458;SDS011;1241;50.920;6.936;2023-04-24T11:21:11;9.40;;;8.40;;
2458;SDS011;1241;50.920;6.936;2023-04-24T11:23:38;7.85;;;6.47;;
2458;SDS011;1241;50.920;6.936;2023-04-24T11:26:21;10.38;;;7.38;;
2458;SDS011;1241;50.920;6.936;2023-04-24T11:28:50;10.07;;;8.52;;
2458;SDS011;1241;50.920;6.936;2023-04-24T11:34:11;12.25;;;7.60;;
2458;SDS011;1241;50.920;6.936;2023-04-24T11:36:39;9.40;;;7.07;;
2458;SDS011;1241;50.920;6.936;2023-04-24T11:39:05;10.40;;;7.03;;
2458;SDS011;1241;50.920;6.936;2023-04-24T11:41:32;11.75;;;6.95;;
2458;SDS011;1241;50.920;6.936;2023-04-24T11:43:58;7.35;;;6.65;;
2458;SDS011;1241;50.920;6.936;2023-04-24T11:46:27;8.25;;;6.75;;
2458;SDS011;1241;50.920;6.936;2023-04-24T11:48:55;7.72;;;6.60;;
2458;SDS011;1241;50.920;6.936;2023-04-24T11:51:22;9.43;;;6.80;;
2458;SDS011;1241;50.920;6.936;2023-04-24T11:53:50;6.72;;;6.03;;
2458;SDS011;1241;50.920;6.936;2023-04-24T11:56:19;9.50;;;6.18;;
2458;SDS011;1241;50.920;6.936;2023-04-24T11:58:47;6.47;;;5.35;;
2458;SDS011;1241;50.920;6.936;2023-04-24T12:01:13;7.63;;;5.82;;
2458;SDS011;1241;50.920;6.936;2023-04-24T12:03:39;6.60;;;5.90;;
2458;SDS011;1241;50.920;6.936;2023-04-24T12:06:08;9.98;;;5.63;;
2458;SDS011;1241;50.920;6.936;2023-04-24T12:08:36;7.38;;;5.80;;
2458;SDS011;1241;50.920;6.936;2023-04-24T12:11:02;6.20;;;5.60;;
2458;SDS011;1241;50.920;6.936;2023-04-24T12:13:29;7.05;;;5.78;;
2458;SDS011;1241;50.920;6.936;2023-04-24T12:15:59;7.32;;;6.63;;
2458;SDS011;1241;50.920;6.936;2023-04-24T12:18:27;6.75;;;6.03;;
2458;SDS011;1241;50.920;6.936;2023-04-24T12:20:53;8.20;;;5.87;;
2458;SDS011;1241;50.920;6.936;2023-04-24T12:23:34;7.50;;;6.50;;
2458;SDS011;1241;50.920;6.936;2023-04-24T12:26:00;8.98;;;7.40;;
2458;SDS011;1241;50.920;6.936;2023-04-24T12:28:36;9.80;;;7.97;;
2458;SDS011;1241;50.920;6.936;2023-04-24T12:31:03;10.27;;;7.47;;
2458;SDS011;1241;50.920;6.936;2023-04-24T12:33:32;9.60;;;6.88;;
2458;SDS011;1241;50.920;6.936;2023-04-24T12:35:59;9.87;;;7.60;;
2458;SDS011;1241;50.920;6.936;2023-04-24T12:38:26;9.00;;;7.00;;
2458;SDS011;1241;50.920;6.936;2023-04-24T12:41:02;7.30;;;6.60;;
2458;SDS011;1241;50.920;6.936;2023-04-24T12:43:38;11.57;;;6.28;;
2458;SDS011;1241;50.920;6.936;2023-04-24T12:46:04;7.53;;;5.70;;
2458;SDS011;1241;50.920;6.936;2023-04-24T12:48:30;9.05;;;6.07;;
2458;SDS011;1241;50.920;6.936;2023-04-24T12:50:57;7.90;;;5.68;;
2458;SDS011;1241;50.920;6.936;2023-04-24T12:53:26;8.80;;;6.57;;
2458;SDS011;1241;50.920;6.936;2023-04-24T12:55:54;9.20;;;6.50;;
2458;SDS011;1241;50.920;6.936;2023-04-24T12:58:20;8.70;;;5.80;;
2458;SDS011;1241;50.920;6.936;2023-04-24T13:00:46;9.23;;;6.25;;
2458;SDS011;1241;50.920;6.936;2023-04-24T13:03:12;10.35;;;5.80;;
2458;SDS011;1241;50.920;6.936;2023-04-24T13:05:38;11.23;;;5.80;;
2458;SDS011;1241;50.920;6.936;2023-04-24T13:08:04;8.95;;;6.15;;
2458;SDS011;1241;50.920;6.936;2023-04-24T13:10:30;11.50;;;6.97;;
2458;SDS011;1241;50.920;6.936;2023-04-24T13:12:56;8.73;;;7.03;;
2458;SDS011;1241;50.920;6.936;2023-04-24T13:15:22;9.17;;;7.57;;
2458;SDS011;1241;50.920;6.936;2023-04-24T13:17:48;10.85;;;7.10;;
2458;SDS011;1241;50.920;6.936;2023-04-24T13:20:13;10.85;;;7.47;;
2458;SDS011;1241;50.920;6.936;2023-04-24T13:22:39;10.68;;;7.18;;
2458;SDS011;1241;50.920;6.936;2023-04-24T13:25:05;11.53;;;7.17;;
2458;SDS011;1241;50.920;6.936;2023-04-24T13:27:32;10.18;;;6.82;;
2458;SDS011;1241;50.920;6.936;2023-04-24T13:29:57;8.23;;;7.00;;
2458;SDS011;1241;50.920;6.936;2023-04-24T13:32:23;11.90;;;7.20;;
2458;SDS011;1241;50.920;6.936;2023-04-24T13:34:50;10.15;;;7.50;;
2458;SDS011;1241;50.920;6.936;2023-04-24T13:37:16;10.63;;;7.10;;
2458;SDS011;1241;50.920;6.936;2023-04-24T13:39:41;10.73;;;7.60;;
2458;SDS011;1241;50.920;6.936;2023-04-24T13:42:07;9.25;;;7.30;;
2458;SDS011;1241;50.920;6.936;2023-04-24T13:44:33;7.60;;;6.65;;
2458;SDS011;1241;50.920;6.936;2023-04-24T13:46:59;10.83;;;7.53;;
2458;SDS011;1241;50.920;6.936;2023-04-24T13:49:25;7.40;;;6.60;;
2458;SDS011;1241;50.920;6.936;2023-04-24T13:51:51;7.47;;;6.88;;
2458;SDS011;1241;50.920;6.936;2023-04-24T13:54:17;8.50;;;6.88;;
2458;SDS011;1241;50.920;6.936;2023-04-24T13:56:43;9.87;;;7.13;;
2458;SDS011;1241;50.920;6.936;2023-04-24T13:59:09;9.52;;;6.90;;
2458;SDS011;1241;50.920;6.936;2023-04-24T14:01:37;8.02;;;7.22;;
2458;SDS011;1241;50.920;6.936;2023-04-24T14:04:02;8.43;;;7.10;;
2458;SDS011;1241;50.920;6.936;2023-04-24T14:06:28;9.60;;;7.33;;
2458;SDS011;1241;50.920;6.936;2023-04-24T14:08:54;10.77;;;7.30;;
2458;SDS011;1241;50.920;6.936;2023-04-24T14:11:20;9.23;;;7.90;;
2458;SDS011;1241;50.920;6.936;2023-04-24T14:13:46;10.90;;;7.47;;
2458;SDS011;1241;50.920;6.936;2023-04-24T14:16:13;9.20;;;7.40;;
2458;SDS011;1241;50.920;6.936;2023-04-24T14:18:39;8.43;;;7.15;;
2458;SDS011;1241;50.920;6.936;2023-04-24T14:21:05;9.65;;;6.60;;
2458;SDS011;1241;50.920;6.936;2023-04-24T14:23:31;8.93;;;7.07;;
2458;SDS011;1241;50.920;6.936;2023-04-24T14:25:57;8.07;;;6.70;;
2458;SDS011;1241;50.920;6.936;2023-04-24T14:28:24;7.82;;;6.40;;
2458;SDS011;1241;50.920;6.936;2023-04-24T14:30:50;7.63;;;6.82;;
2458;SDS011;1241;50.920;6.936;2023-04-24T14:33:17;9.00;;;6.88;;
2458;SDS011;1241;50.920;6.936;2023-04-24T14:35:43;7.63;;;6.60;;
2458;SDS011;1241;50.920;6.936;2023-04-24T14:38:09;8.27;;;6.90;;
2458;SDS011;1241;50.920;6.936;2023-04-24T14:40:35;7.90;;;7.10;;
2458;SDS011;1241;50.920;6.936;2023-04-24T14:43:01;8.88;;;6.80;;
2458;SDS011;1241;50.920;6.936;2023-04-24T14:45:27;9.95;;;6.53;;
2458;SDS011;1241;50.920;6.936;2023-04-24T14:47:53;7.18;;;6.47;;
2458;SDS011;1241;50.920;6.936;2023-04-24T14:50:20;9.27;;;6.70;;
2458;SDS011;1241;50.920;6.936;2023-04-24T14:52:46;8.67;;;6.43;;
2458;SDS011;1241;50.920;6.936;2023-04-24T14:55:12;8.35;;;6.82;;
2458;SDS011;1241;50.920;6.936;2023-04-24T14:57:38;7.80;;;6.15;;
2458;SDS011;1241;50.920;6.936;2023-04-24T15:00:04;9.07;;;7.00;;
2458;SDS011;1241;50.920;6.936;2023-04-24T15:02:33;8.30;;;7.20;;
2458;SDS011;1241;50.920;6.936;2023-04-24T15:04:59;6.75;;;6.05;;
2458;SDS011;1241;50.920;6.936;2023-04-24T15:07:25;7.53;;;6.80;;
2458;SDS011;1241;50.920;6.936;2023-04-24T15:09:50;7.10;;;6.40;;
2458;SDS011;1241;50.920;6.936;2023-04-24T15:12:16;8.40;;;7.40;;
2458;SDS011;1241;50.920;6.936;2023-04-24T15:14:42;9.90;;;6.10;;